sensor_id;sensor_type;location;lat;lon;timestamp;P1;durP1;ratioP1;P2;durP2;ratioP2
5971;SDS011;3012;49.944;8.454;2023-11-19T00:01:16;13.63;;;8.77;;
5971;SDS011;3012;49.944;8.454;2023-11-19T00:03:46;14.90;;;8.83;;
5971;SDS011;3012;49.944;8.454;2023-11-19T00:06:16;11.07;;;8.77;;
5971;SDS011;3012;49.944;8.454;2023-11-19T00:08:44;11.60;;;7.73;;
5971;SDS011;3012;49.944;8.454;2023-11-19T00:11:14;15.37;;;8.67;;
5971;SDS011;3012;49.944;8.454;2023-11-19T00:13:43;13.37;;;9.13;;
5971;SDS011;3012;49.944;8.454;2023-11-19T00:16:11;10.20;;;8.63;;
5971;SDS011;3012;49.944;8.454;2023-11-19T00:18:39;13.93;;;9.03;;
5971;SDS011;3012;49.944;8.454;2023-11-19T00:21:08;10.80;;;7.93;;
5971;SDS011;3012;49.944;8.454;2023-11-19T00:23:36;8.50;;;7.63;;
5971;SDS011;3012;49.944;8.454;2023-11-19T00:26:05;9.57;;;7.27;;
5971;SDS011;3012;49.944;8.454;2023-11-19T00:28:33;10.67;;;7.57;;
5971;SDS011;3012;49.944;8.454;2023-11-19T00:31:04;7.10;;;6.27;;
5971;SDS011;3012;49.944;8.454;2023-11-19T00:33:33;10.43;;;6.83;;
5971;SDS011;3012;49.944;8.454;2023-11-19T00:36:01;11.50;;;5.97;;
5971;SDS011;3012;49.944;8.454;2023-11-19T00:38:31;7.53;;;6.07;;
5971;SDS011;3012;49.944;8.454;2023-11-19T00:40:59;7.43;;;5.97;;
5971;SDS011;3012;49.944;8.454;2023-11-19T00:43:28;9.37;;;6.50;;
5971;SDS011;3012;49.944;8.454;2023-11-19T00:45:56;9.13;;;7.50;;
5971;SDS011;3012;49.944;8.454;2023-11-19T00:48:24;8.63;;;6.73;;
5971;SDS011;3012;49.944;8.454;2023-11-19T00:50:54;11.87;;;7.90;;
5971;SDS011;3012;49.944;8.454;2023-11-19T00:53:22;8.57;;;7.40;;
5971;SDS011;3012;49.944;8.454;2023-11-19T00:55:51;8.13;;;7.30;;
5971;SDS011;3012;49.944;8.454;2023-11-19T00:58:19;9.70;;;6.73;;
5971;SDS011;3012;49.944;8.454;2023-11-19T01:00:47;10.67;;;6.67;;
5971;SDS011;3012;49.944;8.454;2023-11-19T01:03:15;11.87;;;7.97;;
5971;SDS011;3012;49.944;8.454;2023-11-19T01:05:43;9.33;;;7.83;;
5971;SDS011;3012;49.944;8.454;2023-11-19T01:08:13;10.20;;;8.27;;
5971;SDS011;3012;49.944;8.454;2023-11-19T01:10:42;12.57;;;8.23;;
5971;SDS011;3012;49.944;8.454;2023-11-19T01:13:11;10.87;;;7.70;;
5971;SDS011;3012;49.944;8.454;2023-11-19T01:15:39;10.20;;;8.50;;
5971;SDS011;3012;49.944;8.454;2023-11-19T01:18:08;9.00;;;7.87;;
5971;SDS011;3012;49.944;8.454;2023-11-19T01:20:37;9.83;;;8.00;;
5971;SDS011;3012;49.944;8.454;2023-11-19T01:23:04;11.07;;;8.23;;
5971;SDS011;3012;49.944;8.454;2023-11-19T01:25:34;12.30;;;8.57;;
5971;SDS011;3012;49.944;8.454;2023-11-19T01:28:02;9.80;;;7.30;;
5971;SDS011;3012;49.944;8.454;2023-11-19T01:30:32;9.97;;;7.23;;
5971;SDS011;3012;49.944;8.454;2023-11-19T01:33:00;10.40;;;7.73;;
5971;SDS011;3012;49.944;8.454;2023-11-19T01:35:28;10.07;;;6.87;;
5971;SDS011;3012;49.944;8.454;2023-11-19T01:37:56;9.90;;;6.97;;
5971;SDS011;3012;49.944;8.454;2023-11-19T01:40:23;8.93;;;7.13;;
5971;SDS011;3012;49.944;8.454;2023-11-19T01:42:51;11.63;;;8.07;;
5971;SDS011;3012;49.944;8.454;2023-11-19T01:45:22;12.00;;;7.10;;
5971;SDS011;3012;49.944;8.454;2023-11-19T01:47:58;8.23;;;6.73;;
5971;SDS011;3012;49.944;8.454;2023-11-19T01:50:30;8.93;;;7.27;;
5971;SDS011;3012;49.944;8.454;2023-11-19T01:52:59;10.87;;;7.67;;
5971;SDS011;3012;49.944;8.454;2023-11-19T01:55:27;7.13;;;6.43;;
5971;SDS011;3012;49.944;8.454;2023-11-19T01:57:57;11.00;;;6.97;;
5971;SDS011;3012;49.944;8.454;2023-11-19T02:00:28;11.27;;;7.60;;
5971;SDS011;3012;49.944;8.454;2023-11-19T02:03:00;8.53;;;7.73;;
5971;SDS011;3012;49.944;8.454;2023-11-19T02:05:30;9.53;;;6.83;;
5971;SDS011;3012;49.944;8.454;2023-11-19T02:07:59;9.73;;;8.00;;
5971;SDS011;3012;49.944;8.454;2023-11-19T02:10:27;9.50;;;7.33;;
5971;SDS011;3012;49.944;8.454;2023-11-19T02:12:55;9.07;;;8.10;;
5971;SDS011;3012;49.944;8.454;2023-11-19T02:15:32;8.87;;;7.97;;
5971;SDS011;3012;49.944;8.454;2023-11-19T02:20:49;9.13;;;6.13;;
5971;SDS011;3012;49.944;8.454;2023-11-19T02:23:18;9.93;;;7.43;;
5971;SDS011;3012;49.944;8.454;2023-11-19T02:25:51;8.40;;;6.83;;
5971;SDS011;3012;49.944;8.454;2023-11-19T02:28:28;7.90;;;7.10;;
5971;SDS011;3012;49.944;8.454;2023-11-19T02:30:56;6.67;;;5.80;;
5971;SDS011;3012;49.944;8.454;2023-11-19T02:33:24;7.13;;;6.43;;
5971;SDS011;3012;49.944;8.454;2023-11-19T02:35:52;7.13;;;6.27;;
5971;SDS011;3012;49.944;8.454;2023-11-19T02:38:20;6.97;;;5.87;;
5971;SDS011;3012;49.944;8.454;2023-11-19T02:40:48;5.67;;;5.27;;
5971;SDS011;3012;49.944;8.454;2023-11-19T02:43:16;5.50;;;5.00;;
5971;SDS011;3012;49.944;8.454;2023-11-19T02:45:46;5.43;;;4.10;;
5971;SDS011;3012;49.944;8.454;2023-11-19T02:48:15;5.87;;;4.77;;
5971;SDS011;3012;49.944;8.454;2023-11-19T02:50:43;6.00;;;4.50;;
5971;SDS011;3012;49.944;8.454;2023-11-19T02:53:12;6.77;;;4.07;;
5971;SDS011;3012;49.944;8.454;2023-11-19T02:55:40;4.50;;;4.20;;
5971;SDS011;3012;49.944;8.454;2023-11-19T02:58:14;5.07;;;4.57;;
5971;SDS011;3012;49.944;8.454;2023-11-19T03:00:51;6.53;;;4.40;;
5971;SDS011;3012;49.944;8.454;2023-11-19T03:03:24;8.33;;;5.63;;
5971;SDS011;3012;49.944;8.454;2023-11-19T03:05:57;5.80;;;5.23;;
5971;SDS011;3012;49.944;8.454;2023-11-19T03:08:25;6.23;;;3.93;;
5971;SDS011;3012;49.944;8.454;2023-11-19T03:10:53;5.17;;;4.77;;
5971;SDS011;3012;49.944;8.454;2023-11-19T03:13:22;5.00;;;4.60;;
5971;SDS011;3012;49.944;8.454;2023-11-19T03:15:51;5.13;;;4.63;;
5971;SDS011;3012;49.944;8.454;2023-11-19T03:18:20;5.17;;;4.67;;
5971;SDS011;3012;49.944;8.454;2023-11-19T03:20:49;5.03;;;4.23;;
5971;SDS011;3012;49.944;8.454;2023-11-19T03:23:17;3.93;;;3.67;;
5971;SDS011;3012;49.944;8.454;2023-11-19T03:25:46;4.37;;;4.07;;
5971;SDS011;3012;49.944;8.454;2023-11-19T03:28:14;4.50;;;3.93;;
5971;SDS011;3012;49.944;8.454;2023-11-19T03:30:42;6.10;;;4.17;;
5971;SDS011;3012;49.944;8.454;2023-11-19T03:33:11;3.50;;;3.20;;
5971;SDS011;3012;49.944;8.454;2023-11-19T03:35:39;4.17;;;3.77;;
5971;SDS011;3012;49.944;8.454;2023-11-19T03:38:08;6.83;;;3.30;;
5971;SDS011;3012;49.944;8.454;2023-11-19T03:40:36;2.80;;;2.47;;
5971;SDS011;3012;49.944;8.454;2023-11-19T03:43:05;3.40;;;3.10;;
5971;SDS011;3012;49.944;8.454;2023-11-19T03:45:33;3.47;;;2.40;;
5971;SDS011;3012;49.944;8.454;2023-11-19T03:48:02;2.77;;;2.57;;
5971;SDS011;3012;49.944;8.454;2023-11-19T03:50:32;3.00;;;2.77;;
5971;SDS011;3012;49.944;8.454;2023-11-19T03:53:01;2.80;;;2.43;;
5971;SDS011;3012;49.944;8.454;2023-11-19T03:55:31;3.67;;;2.37;;
5971;SDS011;3012;49.944;8.454;2023-11-19T03:57:59;2.73;;;2.53;;
5971;SDS011;3012;49.944;8.454;2023-11-19T04:00:27;1.90;;;1.80;;
5971;SDS011;3012;49.944;8.454;2023-11-19T04:02:55;1.80;;;1.70;;
5971;SDS011;3012;49.944;8.454;2023-11-19T04:05:23;2.17;;;2.07;;
5971;SDS011;3012;49.944;8.454;2023-11-19T04:07:52;1.37;;;1.27;;
5971;SDS011;3012;49.944;8.454;2023-11-19T04:10:20;2.27;;;1.70;;
5971;SDS011;3012;49.944;8.454;2023-11-19T04:12:49;1.63;;;1.37;;
5971;SDS011;3012;49.944;8.454;2023-11-19T04:15:17;1.97;;;1.83;;
5971;SDS011;3012;49.944;8.454;2023-11-19T04:17:45;2.57;;;1.33;;
5971;SDS011;3012;49.944;8.454;2023-11-19T04:20:13;2.40;;;2.20;;
5971;SDS011;3012;49.944;8.454;2023-11-19T04:22:42;1.90;;;1.80;;
5971;SDS011;3012;49.944;8.454;2023-11-19T04:25:11;3.97;;;2.37;;
5971;SDS011;3012;49.944;8.454;2023-11-19T04:27:41;3.63;;;2.73;;
5971;SDS011;3012;49.944;8.454;2023-11-19T04:30:09;2.57;;;2.47;;
5971;SDS011;3012;49.944;8.454;2023-11-19T04:32:38;1.97;;;1.87;;
5971;SDS011;3012;49.944;8.454;2023-11-19T04:35:07;2.13;;;2.03;;
5971;SDS011;3012;49.944;8.454;2023-11-19T04:37:37;2.27;;;1.73;;
5971;SDS011;3012;49.944;8.454;2023-11-19T04:40:05;6.67;;;2.10;;
5971;SDS011;3012;49.944;8.454;2023-11-19T04:42:35;4.70;;;1.87;;
5971;SDS011;3012;49.944;8.454;2023-11-19T04:45:04;3.70;;;1.40;;
5971;SDS011;3012;49.944;8.454;2023-11-19T04:47:33;3.40;;;1.53;;
5971;SDS011;3012;49.944;8.454;2023-11-19T04:50:01;3.27;;;2.30;;
5971;SDS011;3012;49.944;8.454;2023-11-19T04:52:30;3.20;;;1.73;;
5971;SDS011;3012;49.944;8.454;2023-11-19T04:54:58;1.83;;;1.60;;
5971;SDS011;3012;49.944;8.454;2023-11-19T04:57:26;3.03;;;1.87;;
5971;SDS011;3012;49.944;8.454;2023-11-19T04:59:55;2.03;;;1.93;;
5971;SDS011;3012;49.944;8.454;2023-11-19T05:02:23;5.80;;;2.07;;
5971;SDS011;3012;49.944;8.454;2023-11-19T05:04:51;2.27;;;2.07;;
5971;SDS011;3012;49.944;8.454;2023-11-19T05:07:19;2.13;;;1.90;;
5971;SDS011;3012;49.944;8.454;2023-11-19T05:09:47;2.53;;;1.63;;
5971;SDS011;3012;49.944;8.454;2023-11-19T05:12:15;2.50;;;1.43;;
5971;SDS011;3012;49.944;8.454;2023-11-19T05:14:43;1.30;;;1.20;;
5971;SDS011;3012;49.944;8.454;2023-11-19T05:17:17;1.70;;;1.60;;
5971;SDS011;3012;49.944;8.454;2023-11-19T05:19:45;3.70;;;1.50;;
5971;SDS011;3012;49.944;8.454;2023-11-19T05:22:14;1.83;;;1.37;;
5971;SDS011;3012;49.944;8.454;2023-11-19T05:24:42;2.93;;;1.43;;
5971;SDS011;3012;49.944;8.454;2023-11-19T05:27:10;1.23;;;1.20;;
5971;SDS011;3012;49.944;8.454;2023-11-19T05:29:39;2.17;;;1.10;;
5971;SDS011;3012;49.944;8.454;2023-11-19T05:32:09;2.10;;;1.40;;
5971;SDS011;3012;49.944;8.454;2023-11-19T05:34:39;0.90;;;0.90;;
5971;SDS011;3012;49.944;8.454;2023-11-19T05:37:27;2.47;;;1.00;;
5971;SDS011;3012;49.944;8.454;2023-11-19T05:39:55;4.93;;;1.10;;
5971;SDS011;3012;49.944;8.454;2023-11-19T05:42:26;0.83;;;0.83;;
5971;SDS011;3012;49.944;8.454;2023-11-19T05:44:54;0.63;;;0.63;;
5971;SDS011;3012;49.944;8.454;2023-11-19T05:47:24;2.27;;;0.70;;
5971;SDS011;3012;49.944;8.454;2023-11-19T05:49:53;0.50;;;0.50;;
5971;SDS011;3012;49.944;8.454;2023-11-19T05:52:21;1.77;;;0.60;;
5971;SDS011;3012;49.944;8.454;2023-11-19T05:54:49;0.43;;;0.43;;
5971;SDS011;3012;49.944;8.454;2023-11-19T05:57:18;3.23;;;0.50;;
5971;SDS011;3012;49.944;8.454;2023-11-19T18:57:12;8.07;;;1.83;;
5971;SDS011;3012;49.944;8.454;2023-11-19T18:59:40;9.33;;;1.73;;
5971;SDS011;3012;49.944;8.454;2023-11-19T19:02:08;5.53;;;1.30;;
5971;SDS011;3012;49.944;8.454;2023-11-19T19:04:36;7.77;;;1.73;;
5971;SDS011;3012;49.944;8.454;2023-11-19T19:07:04;5.63;;;1.40;;
5971;SDS011;3012;49.944;8.454;2023-11-19T19:09:34;11.90;;;2.13;;
5971;SDS011;3012;49.944;8.454;2023-11-19T19:12:02;9.33;;;1.20;;
5971;SDS011;3012;49.944;8.454;2023-11-19T19:14:31;5.93;;;1.20;;
5971;SDS011;3012;49.944;8.454;2023-11-19T19:16:59;9.70;;;1.60;;
5971;SDS011;3012;49.944;8.454;2023-11-19T19:19:29;12.10;;;2.57;;
5971;SDS011;3012;49.944;8.454;2023-11-19T19:21:57;13.55;;;2.10;;
5971;SDS011;3012;49.944;8.454;2023-11-19T19:24:25;10.30;;;1.50;;
5971;SDS011;3012;49.944;8.454;2023-11-19T19:26:54;14.57;;;2.20;;
5971;SDS011;3012;49.944;8.454;2023-11-19T19:29:22;9.25;;;1.55;;
5971;SDS011;3012;49.944;8.454;2023-11-19T19:31:52;9.98;;;1.83;;
5971;SDS011;3012;49.944;8.454;2023-11-19T19:34:20;9.82;;;1.42;;
5971;SDS011;3012;49.944;8.454;2023-11-19T19:36:48;8.67;;;1.37;;
5971;SDS011;3012;49.944;8.454;2023-11-19T19:39:15;6.60;;;1.63;;
5971;SDS011;3012;49.944;8.454;2023-11-19T19:41:44;6.33;;;2.07;;
5971;SDS011;3012;49.944;8.454;2023-11-19T19:44:12;11.13;;;1.73;;
5971;SDS011;3012;49.944;8.454;2023-11-19T19:46:42;6.20;;;1.50;;
5971;SDS011;3012;49.944;8.454;2023-11-19T19:49:11;5.10;;;1.38;;
5971;SDS011;3012;49.944;8.454;2023-11-19T19:51:39;13.97;;;1.77;;
5971;SDS011;3012;49.944;8.454;2023-11-19T19:54:08;12.37;;;1.77;;
5971;SDS011;3012;49.944;8.454;2023-11-19T19:56:36;9.93;;;1.67;;
5971;SDS011;3012;49.944;8.454;2023-11-19T19:59:05;10.30;;;1.73;;
5971;SDS011;3012;49.944;8.454;2023-11-19T20:01:35;9.40;;;1.93;;
5971;SDS011;3012;49.944;8.454;2023-11-19T20:04:03;6.82;;;1.50;;
5971;SDS011;3012;49.944;8.454;2023-11-19T20:06:37;14.70;;;2.28;;
5971;SDS011;3012;49.944;8.454;2023-11-19T20:09:05;13.33;;;1.20;;
5971;SDS011;3012;49.944;8.454;2023-11-19T20:11:33;10.93;;;1.50;;
5971;SDS011;3012;49.944;8.454;2023-11-19T20:14:01;10.17;;;1.37;;
5971;SDS011;3012;49.944;8.454;2023-11-19T20:16:29;12.27;;;1.80;;
5971;SDS011;3012;49.944;8.454;2023-11-19T20:18:57;7.22;;;1.48;;
5971;SDS011;3012;49.944;8.454;2023-11-19T20:21:25;4.47;;;1.47;;
5971;SDS011;3012;49.944;8.454;2023-11-19T20:23:55;10.77;;;2.30;;
5971;SDS011;3012;49.944;8.454;2023-11-19T20:26:23;12.37;;;2.03;;
5971;SDS011;3012;49.944;8.454;2023-11-19T20:28:51;8.80;;;1.90;;
5971;SDS011;3012;49.944;8.454;2023-11-19T20:31:22;12.27;;;1.73;;
5971;SDS011;3012;49.944;8.454;2023-11-19T20:33:50;16.63;;;1.97;;
5971;SDS011;3012;49.944;8.454;2023-11-19T20:36:18;8.03;;;1.90;;
5971;SDS011;3012;49.944;8.454;2023-11-19T20:38:46;10.03;;;1.87;;
5971;SDS011;3012;49.944;8.454;2023-11-19T20:41:18;9.33;;;1.87;;
5971;SDS011;3012;49.944;8.454;2023-11-19T20:43:46;9.50;;;2.17;;
5971;SDS011;3012;49.944;8.454;2023-11-19T20:46:14;5.80;;;1.77;;
5971;SDS011;3012;49.944;8.454;2023-11-19T20:48:42;10.98;;;1.90;;
5971;SDS011;3012;49.944;8.454;2023-11-19T20:51:09;12.90;;;1.87;;
5971;SDS011;3012;49.944;8.454;2023-11-19T20:53:38;18.90;;;2.00;;
5971;SDS011;3012;49.944;8.454;2023-11-19T20:56:06;14.63;;;2.70;;
5971;SDS011;3012;49.944;8.454;2023-11-19T20:58:36;10.47;;;2.20;;
5971;SDS011;3012;49.944;8.454;2023-11-19T21:01:04;11.38;;;2.05;;
5971;SDS011;3012;49.944;8.454;2023-11-19T21:03:32;12.23;;;1.70;;
5971;SDS011;3012;49.944;8.454;2023-11-19T21:06:03;16.07;;;1.83;;
5971;SDS011;3012;49.944;8.454;2023-11-19T21:08:31;13.07;;;2.08;;
5971;SDS011;3012;49.944;8.454;2023-11-19T21:10:59;17.00;;;2.50;;
5971;SDS011;3012;49.944;8.454;2023-11-19T21:13:28;13.35;;;2.17;;
5971;SDS011;3012;49.944;8.454;2023-11-19T21:16:01;4.82;;;1.60;;
5971;SDS011;3012;49.944;8.454;2023-11-19T21:18:29;13.73;;;2.20;;
5971;SDS011;3012;49.944;8.454;2023-11-19T21:20:57;10.43;;;2.07;;
5971;SDS011;3012;49.944;8.454;2023-11-19T21:23:25;18.00;;;2.53;;
5971;SDS011;3012;49.944;8.454;2023-11-19T21:25:53;18.17;;;2.35;;
5971;SDS011;3012;49.944;8.454;2023-11-19T21:28:21;12.48;;;1.40;;
5971;SDS011;3012;49.944;8.454;2023-11-19T21:30:54;16.47;;;2.23;;
5971;SDS011;3012;49.944;8.454;2023-11-19T21:33:25;11.67;;;1.77;;
5971;SDS011;3012;49.944;8.454;2023-11-19T21:35:53;8.05;;;1.58;;
5971;SDS011;3012;49.944;8.454;2023-11-19T21:38:24;17.20;;;2.03;;
5971;SDS011;3012;49.944;8.454;2023-11-19T21:40:53;14.75;;;1.70;;
5971;SDS011;3012;49.944;8.454;2023-11-19T21:43:21;18.15;;;1.88;;
5971;SDS011;3012;49.944;8.454;2023-11-19T21:45:49;15.47;;;2.67;;
5971;SDS011;3012;49.944;8.454;2023-11-19T21:48:17;9.77;;;1.98;;
5971;SDS011;3012;49.944;8.454;2023-11-19T21:50:47;13.88;;;2.22;;
5971;SDS011;3012;49.944;8.454;2023-11-19T21:53:14;12.35;;;2.45;;
5971;SDS011;3012;49.944;8.454;2023-11-19T21:55:42;11.45;;;1.63;;
5971;SDS011;3012;49.944;8.454;2023-11-19T21:58:10;11.55;;;1.52;;
5971;SDS011;3012;49.944;8.454;2023-11-19T22:00:38;11.03;;;2.07;;
5971;SDS011;3012;49.944;8.454;2023-11-19T22:03:07;9.70;;;1.80;;
5971;SDS011;3012;49.944;8.454;2023-11-19T22:05:35;15.05;;;2.20;;
5971;SDS011;3012;49.944;8.454;2023-11-19T22:08:04;10.65;;;2.15;;
5971;SDS011;3012;49.944;8.454;2023-11-19T22:10:38;17.50;;;2.60;;
5971;SDS011;3012;49.944;8.454;2023-11-19T22:13:06;17.15;;;2.03;;
5971;SDS011;3012;49.944;8.454;2023-11-19T22:15:34;9.35;;;1.67;;
5971;SDS011;3012;49.944;8.454;2023-11-19T22:18:03;9.02;;;1.88;;
5971;SDS011;3012;49.944;8.454;2023-11-19T22:20:30;13.13;;;2.47;;
5971;SDS011;3012;49.944;8.454;2023-11-19T22:23:01;11.60;;;2.38;;
5971;SDS011;3012;49.944;8.454;2023-11-19T22:25:30;14.75;;;1.98;;
5971;SDS011;3012;49.944;8.454;2023-11-19T22:27:58;18.80;;;1.90;;
5971;SDS011;3012;49.944;8.454;2023-11-19T22:30:26;11.25;;;1.92;;
5971;SDS011;3012;49.944;8.454;2023-11-19T22:32:54;13.50;;;1.77;;
5971;SDS011;3012;49.944;8.454;2023-11-19T22:35:22;13.10;;;2.10;;
5971;SDS011;3012;49.944;8.454;2023-11-19T22:37:51;12.40;;;2.05;;
5971;SDS011;3012;49.944;8.454;2023-11-19T22:40:19;11.45;;;1.67;;
5971;SDS011;3012;49.944;8.454;2023-11-19T22:42:49;12.77;;;1.80;;
5971;SDS011;3012;49.944;8.454;2023-11-19T22:45:18;9.82;;;1.23;;
5971;SDS011;3012;49.944;8.454;2023-11-19T22:47:46;19.80;;;2.45;;
5971;SDS011;3012;49.944;8.454;2023-11-19T22:50:16;11.50;;;1.83;;
5971;SDS011;3012;49.944;8.454;2023-11-19T22:52:44;10.73;;;1.70;;
5971;SDS011;3012;49.944;8.454;2023-11-19T22:55:13;7.22;;;1.52;;
5971;SDS011;3012;49.944;8.454;2023-11-19T22:57:41;17.30;;;2.17;;
5971;SDS011;3012;49.944;8.454;2023-11-19T23:00:14;7.47;;;1.40;;
5971;SDS011;3012;49.944;8.454;2023-11-19T23:02:54;15.80;;;2.40;;
5971;SDS011;3012;49.944;8.454;2023-11-19T23:05:23;13.02;;;1.60;;
5971;SDS011;3012;49.944;8.454;2023-11-19T23:07:53;4.93;;;1.60;;
5971;SDS011;3012;49.944;8.454;2023-11-19T23:10:22;17.00;;;2.15;;
5971;SDS011;3012;49.944;8.454;2023-11-19T23:12:50;15.07;;;1.83;;
5971;SDS011;3012;49.944;8.454;2023-11-19T23:15:19;12.10;;;1.90;;
5971;SDS011;3012;49.944;8.454;2023-11-19T23:17:50;16.88;;;1.90;;
5971;SDS011;3012;49.944;8.454;2023-11-19T23:20:19;14.30;;;1.98;;
5971;SDS011;3012;49.944;8.454;2023-11-19T23:22:48;11.48;;;1.70;;
5971;SDS011;3012;49.944;8.454;2023-11-19T23:25:16;11.88;;;2.08;;
5971;SDS011;3012;49.944;8.454;2023-11-19T23:27:44;8.27;;;1.67;;
5971;SDS011;3012;49.944;8.454;2023-11-19T23:30:12;10.90;;;1.40;;
5971;SDS011;3012;49.944;8.454;2023-11-19T23:32:43;8.35;;;1.63;;
5971;SDS011;3012;49.944;8.454;2023-11-19T23:35:11;10.68;;;1.45;;
5971;SDS011;3012;49.944;8.454;2023-11-19T23:37:39;10.10;;;1.40;;
5971;SDS011;3012;49.944;8.454;2023-11-19T23:40:10;5.87;;;1.57;;
5971;SDS011;3012;49.944;8.454;2023-11-19T23:42:39;13.23;;;1.83;;
5971;SDS011;3012;49.944;8.454;2023-11-19T23:45:08;10.07;;;2.03;;
5971;SDS011;3012;49.944;8.454;2023-11-19T23:47:37;14.10;;;2.17;;
5971;SDS011;3012;49.944;8.454;2023-11-19T23:50:06;9.25;;;1.98;;
5971;SDS011;3012;49.944;8.454;2023-11-19T23:52:35;10.40;;;2.03;;
5971;SDS011;3012;49.944;8.454;2023-11-19T23:55:03;16.08;;;1.40;;
5971;SDS011;3012;49.944;8.454;2023-11-19T23:57:33;10.38;;;2.05;;
